Tuxedo, NC (28784)

11:47 PM EDT on September 18, 2014 (GMT -0400)
Ridgeview | Change Station
CLOSE
Current Station
Personal Weather Station
Location: Flat Rock, NC
Elevation: 2425 ft
Nearby Weather Stations

Elev 2425 ft 35.26 °N, 82.45 °W | Updated 0 second ago

Overcast
Overcast
62.5 °F
Feels Like 62.5 °F
N
0.0
Wind Variable Wind from East
Gusts 0.0 mph

Today
High -- | Low -- °F
--% Chance of Precip.
Yesterday
High -- | Low -- °F
Precip. -- in
7:14 AM 7:32 PM
Waning Crescent, 22% visible
Pressure 30.04 in
Visibility 10.0 miles
Clouds Scattered Clouds 6000 ft
Overcast 10000 ft
Dew Point 61 °F
Humidity 96%
Rainfall 0.00 in
Snow Depth Not available.
UV 0 out of 12
Pollen 7.00 out of 12
Ozone Good
PM2.5 Good
Flu Activity Not available.
METAR KAVL 190254Z AUTO 00000KT 10SM SCT060 OVC100 19/16 A3010 RMK AO2 SLP172 T01890156 51018

More Conditions Fewer Conditions

Pressure 30.04 in
Visibility 10.0 miles
Clouds Scattered Clouds 6000 ft
Overcast 10000 ft
Dew Point 61 °F
Humidity 96%
Rainfall 0.00 in
Snow Depth Not available.
UV 0 out of 12
Pollen 7.00 out of 12
Ozone Good
PM2.5 Good
Flu Activity Not available.
METAR KAVL 190254Z AUTO 00000KT 10SM SCT060 OVC100 19/16 A3010 RMK AO2 SLP172 T01890156 51018

More Conditions Fewer Conditions

10-Day Weather Forecast

Almanac

Astronomy

Sep. 18, 2014 Rise Set
Actual Time 7:14 AM EDT 7:32 PM EDT
Civil Twilight 6:49 AM EDT 7:57 PM EDT
Nautical Twilight 6:19 AM EDT 8:27 PM EDT
Astronomical Twilight 5:49 AM EDT 8:57 PM EDT
Moon 2:14 AM EDT (9/18) 4:14 PM EDT (9/18)
Length of Visible Light 13h 08m
Length of Day
12h 17m
Tomorrow will be 2m 11s shorter.
Waning Crescent, 22% of the Moon is Illuminated
Today
Waning Crescent
Sep 24
New
Oct 1
First Quarter
Oct 8
Full
Oct 15
Last Quarter

Today's Extremes

State Highs State Lows

Community

WunderPhotos

Upload Photos

1,754,553 photos uploaded!

Nearby

Air Quality

  Air Quality AQ Index Pollutant
Yesterday Good
PM2.5
Yesterday Good
OZONE
Current Good
PM2.5
Current Good
OZONE
Thursday Good
PM2.5
Thursday Good
OZONE
Friday Good
PM2.5
Friday Good
OZONE
Saturday Good
PM2.5
Saturday Good
OZONE
Sunday Good
PM2.5
Sunday Good
OZONE

Snow Depth

Station Depth Elevation
No new snow has been reported.

Earthquake Activity

City Distance Mag. Time & Date
No recent earthquake activity has been reported nearby.
Minimum magnitude displayed is 2.5.

Coastal Water Temperatures

Place Temperature
No Stations Reporting

Nearby Weather Stations